Heppner, Oregon
Current Conditions -  °F | °C
As of 11:13 AM on Saturday 25 Oct 2014 (Local Time) from KHRI Reporting Station
Overcast Overcast  
Wind Chill: 53°   Ceiling: 1300
Heat Index: 53°   Visibility: 10mi
Dew Point: 48°   Wind: 3mph
Humidity: 83%   Direction: 50°NE
Pressure: 29.58"   Gusts: NA
Location:  45.35°N, 119.56°W
Report Text: KHRI 251813Z AUTO 05003KT 10SM BKN013 OVC100 12/09 A2958 RMK AO2 T01170089
Loading
Personal Weather Stations






























Interactive Weather Map
Tropical Storm Tracking
New forecast layout! Learn more

10-Day Weather Forecast

Advertisements
Track Severe Weather on mobile